Bering Gas — OWYQ2 — position and weather

sailwx.info

Track history (hours):
 
Tides and Currents Weather Stations Pressure Air Temp Water Temp Dewpoint Dewpoint Depression Visibility Wind Speed Wind Dir Waves Ship Positions

Bering Gas

Last reported at 2017-Nov-16 23:10 UTC. Time now 2017-Nov-22 03:30 UTC.
Position N 29°14' W 094°27'.

Length 160 m; draft 6.6 m.

Type: Tanker. MMSI: 219672000.

Date/timePositionNaut miles runAvg speedWind from/ knotsBaromVisibWave heightAir tempDewpointWater temp
2017-Nov-16 23:10N 29°14' W 094°27'  
2017-Nov-14 18:34N 26°51' W 094°24'114.2
2017-Nov-14 18:30N 26°50' W 094°24'3 6.5
2017-Nov-14 18:00N 26°47' W 094°25'713.6
2017-Nov-14 17:30N 26°40' W 094°24'714.3
2017-Nov-14 17:00N 26°33' W 094°24'714.4
2017-Nov-14 16:30N 26°26' W 094°24'714.5
2017-Nov-14 15:59N 26°19' W 094°24'814.6
2017-Nov-14 15:28N 26°11' W 094°23'  
2017-Nov-10 01:32N 29°30' W 094°52'113.1
2017-Nov-10 01:26N 29°31' W 094°53'612.8
2017-Nov-10 01:00N 29°35' W 094°56'612.5
2017-Nov-10 00:30N 29°41' W 094°59'5 9.6
2017-Nov-10 00:00N 29°44' W 095°03'3 6.7
2017-Nov-09 23:30N 29°44' W 095°07'4 7.8
2017-Nov-09 23:00N 29°45' W 095°12'3 6.1
2017-Nov-09 22:30N 29°43' W 095°15'2 4.3
2017-Nov-09 22:00N 29°44' W 095°17'0 0.0
2017-Nov-09 21:07N 29°44' W 095°17'0 0.0
2017-Nov-09 20:49N 29°44' W 095°17'0 0.0
2017-Nov-09 20:19N 29°44' W 095°17'0 0.0
2017-Nov-09 14:22N 29°44' W 095°17'0 0.0
2017-Nov-09 13:40N 29°44' W 095°17'0 0.0
2017-Nov-09 13:28N 29°44' W 095°17'0 0.0
2017-Nov-09 12:55N 29°44' W 095°17'0 0.0
2017-Nov-09 12:28N 29°44' W 095°17'0 0.0
2017-Nov-09 11:58N 29°44' W 095°17'0 0.0
2017-Nov-09 11:16N 29°44' W 095°17'0 0.0
2017-Nov-09 10:55N 29°44' W 095°17'0 0.0
2017-Nov-09 10:28N 29°44' W 095°17'0 0.0
2017-Nov-09 09:58N 29°44' W 095°17'0 0.0
2017-Nov-09 09:28N 29°44' W 095°17'0 0.0
2017-Nov-09 08:52N 29°44' W 095°17'0 0.0
2017-Nov-09 08:30N 29°44' W 095°17'1 1.3
2017-Nov-09 08:00N 29°44' W 095°16'2 4.8
2017-Nov-09 07:30N 29°44' W 095°14'3 6.3
2017-Nov-09 07:00N 29°45' W 095°10'3 6.8
2017-Nov-09 06:31N 29°44' W 095°07'4 7.1
2017-Nov-09 06:00N 29°44' W 095°02'5 9.8
2017-Nov-09 05:30N 29°40' W 094°59'612.6
2017-Nov-09 05:01N 29°35' W 094°56'814.8
2017-Nov-09 04:30N 29°28' W 094°51'9 0.3
2017-Nov-08 01:09N 29°21' W 094°45'10 8.2
2017-Nov-07 23:54N 29°30' W 094°52'512.2
2017-Nov-07 23:30N 29°34' W 094°55'612.3
2017-Nov-07 23:00N 29°39' W 094°58'510.5
2017-Nov-07 22:30N 29°43' W 095°01'4 7.4
2017-Nov-07 21:56N 29°45' W 095°06'2 0.2
2017-Nov-07 12:42N 29°44' W 095°08'0 0.0
2017-Nov-07 12:30N 29°44' W 095°08'0 0.0
2017-Nov-07 07:45N 29°44' W 095°08'0 0.0
2017-Nov-07 01:06N 29°44' W 095°08'0 0.0
2017-Nov-07 01:00N 29°44' W 095°08'  
Track history (hours):
 
Tides and Currents Weather Stations Pressure Air Temp Water Temp Dewpoint Dewpoint Depression Visibility Wind Speed Wind Dir Waves Ship Positions

Bering Gas

Last reported at 2017-Nov-16 23:10 UTC. Time now 2017-Nov-22 03:30 UTC.
Position N 29°14' W 094°27'.

Length 160 m; draft 6.6 m.

Type: Tanker. MMSI: 219672000.

Date/timePositionNaut miles runAvg speedWind from/ knotsBaromVisibWave heightAir tempDewpointWater temp
2017-Nov-16 23:10N 29°14' W 094°27'  
2017-Nov-14 18:34N 26°51' W 094°24'114.2
2017-Nov-14 18:30N 26°50' W 094°24'3 6.5
2017-Nov-14 18:00N 26°47' W 094°25'713.6
2017-Nov-14 17:30N 26°40' W 094°24'714.3
2017-Nov-14 17:00N 26°33' W 094°24'714.4
2017-Nov-14 16:30N 26°26' W 094°24'714.5
2017-Nov-14 15:59N 26°19' W 094°24'814.6
2017-Nov-14 15:28N 26°11' W 094°23'  
2017-Nov-10 01:32N 29°30' W 094°52'113.1
2017-Nov-10 01:26N 29°31' W 094°53'612.8
2017-Nov-10 01:00N 29°35' W 094°56'612.5
2017-Nov-10 00:30N 29°41' W 094°59'5 9.6
2017-Nov-10 00:00N 29°44' W 095°03'3 6.7
2017-Nov-09 23:30N 29°44' W 095°07'4 7.8
2017-Nov-09 23:00N 29°45' W 095°12'3 6.1
2017-Nov-09 22:30N 29°43' W 095°15'2 4.3
2017-Nov-09 22:00N 29°44' W 095°17'0 0.0
2017-Nov-09 21:07N 29°44' W 095°17'0 0.0
2017-Nov-09 20:49N 29°44' W 095°17'0 0.0
2017-Nov-09 20:19N 29°44' W 095°17'0 0.0
2017-Nov-09 14:22N 29°44' W 095°17'0 0.0
2017-Nov-09 13:40N 29°44' W 095°17'0 0.0
2017-Nov-09 13:28N 29°44' W 095°17'0 0.0
2017-Nov-09 12:55N 29°44' W 095°17'0 0.0
2017-Nov-09 12:28N 29°44' W 095°17'0 0.0
2017-Nov-09 11:58N 29°44' W 095°17'0 0.0
2017-Nov-09 11:16N 29°44' W 095°17'0 0.0
2017-Nov-09 10:55N 29°44' W 095°17'0 0.0
2017-Nov-09 10:28N 29°44' W 095°17'0 0.0
2017-Nov-09 09:58N 29°44' W 095°17'0 0.0
2017-Nov-09 09:28N 29°44' W 095°17'0 0.0
2017-Nov-09 08:52N 29°44' W 095°17'0 0.0
2017-Nov-09 08:30N 29°44' W 095°17'1 1.3
2017-Nov-09 08:00N 29°44' W 095°16'2 4.8
2017-Nov-09 07:30N 29°44' W 095°14'3 6.3
2017-Nov-09 07:00N 29°45' W 095°10'3 6.8
2017-Nov-09 06:31N 29°44' W 095°07'4 7.1
2017-Nov-09 06:00N 29°44' W 095°02'5 9.8
2017-Nov-09 05:30N 29°40' W 094°59'612.6
2017-Nov-09 05:01N 29°35' W 094°56'814.8
2017-Nov-09 04:30N 29°28' W 094°51'9 0.3
2017-Nov-08 01:09N 29°21' W 094°45'10 8.2
2017-Nov-07 23:54N 29°30' W 094°52'512.2
2017-Nov-07 23:30N 29°34' W 094°55'612.3
2017-Nov-07 23:00N 29°39' W 094°58'510.5
2017-Nov-07 22:30N 29°43' W 095°01'4 7.4
2017-Nov-07 21:56N 29°45' W 095°06'2 0.2
2017-Nov-07 12:42N 29°44' W 095°08'0 0.0
2017-Nov-07 12:30N 29°44' W 095°08'0 0.0
2017-Nov-07 07:45N 29°44' W 095°08'0 0.0
2017-Nov-07 01:06N 29°44' W 095°08'0 0.0
2017-Nov-07 01:00N 29°44' W 095°08'  

Dump ship's entire track history